createdAt,value
2022-08-10T00:04:02.916Z,18.86
2022-08-10T00:08:07.817Z,18.78
2022-08-10T00:12:11.742Z,18.71
2022-08-10T00:16:15.425Z,18.65
2022-08-10T00:20:19.294Z,18.59
2022-08-10T00:24:24.852Z,18.54
2022-08-10T00:28:28.468Z,18.50
2022-08-10T00:32:31.938Z,18.47
2022-08-10T00:36:34.974Z,18.43
2022-08-10T00:40:39.669Z,18.41
2022-08-10T00:44:45.560Z,18.38
2022-08-10T00:49:00.070Z,18.36
2022-08-10T00:53:04.509Z,18.31
2022-08-10T00:57:17.757Z,18.29
2022-08-10T01:02:08.279Z,18.26
2022-08-10T01:05:53.658Z,18.25
2022-08-10T01:10:10.193Z,18.21
2022-08-10T01:14:23.790Z,18.19
2022-08-10T01:18:39.937Z,18.16
2022-08-10T01:23:05.074Z,18.10
2022-08-10T01:27:34.217Z,18.03
2022-08-10T01:31:43.219Z,17.95
2022-08-10T01:35:53.894Z,17.87
2022-08-10T01:40:00.431Z,17.77
2022-08-10T01:44:10.424Z,17.68
2022-08-10T01:48:32.882Z,17.62
2022-08-10T01:52:43.201Z,17.58
2022-08-10T01:56:52.365Z,17.55
2022-08-10T02:00:58.838Z,17.53
2022-08-10T02:05:05.230Z,17.50
2022-08-10T02:09:09.557Z,17.45
2022-08-10T02:13:14.753Z,17.42
2022-08-10T02:18:00.422Z,17.38
2022-08-10T02:22:36.472Z,17.36
2022-08-10T02:26:19.325Z,17.33
2022-08-10T02:30:23.909Z,17.32
2022-08-10T02:34:28.687Z,17.31
2022-08-10T02:38:59.038Z,17.30
2022-08-10T02:45:23.151Z,17.28
2022-08-10T02:47:51.709Z,17.26
2022-08-10T02:52:08.189Z,17.22
2022-08-10T02:56:22.059Z,17.20
2022-08-10T03:00:26.396Z,17.16
2022-08-10T03:04:55.441Z,17.16
2022-08-10T03:09:01.815Z,17.14
2022-08-10T03:13:10.402Z,17.12
2022-08-10T03:17:16.392Z,17.06
2022-08-10T03:21:22.059Z,16.99
2022-08-10T03:25:27.457Z,16.91
2022-08-10T03:30:23.379Z,16.82
2022-08-10T03:33:59.537Z,16.70
2022-08-10T03:38:03.180Z,16.62
2022-08-10T03:42:09.436Z,16.56
2022-08-10T03:46:16.983Z,16.52
2022-08-10T03:50:46.085Z,16.51
2022-08-10T03:54:46.062Z,16.53
2022-08-10T03:58:49.839Z,16.55
2022-08-10T04:02:55.710Z,16.58
2022-08-10T04:07:00.329Z,16.59
2022-08-10T04:11:03.839Z,16.60
2022-08-10T04:15:08.189Z,16.62
2022-08-10T04:19:15.030Z,16.63
2022-08-10T04:23:23.243Z,16.64
2022-08-10T04:27:27.836Z,16.65
2022-08-10T04:31:33.432Z,16.66
2022-08-10T04:35:40.466Z,16.66
2022-08-10T04:39:43.719Z,16.69
2022-08-10T04:43:48.131Z,16.75
2022-08-10T04:48:00.185Z,16.81
2022-08-10T04:52:08.042Z,16.88
2022-08-10T04:56:13.469Z,16.94
2022-08-10T05:00:18.900Z,17.00
2022-08-10T05:04:34.870Z,17.07
2022-08-10T05:08:43.150Z,17.15
2022-08-10T05:12:47.629Z,17.25
2022-08-10T05:16:51.497Z,17.35
2022-08-10T05:20:54.579Z,17.46
2022-08-10T05:24:59.662Z,17.58
2022-08-10T05:29:03.228Z,17.70
2022-08-10T05:33:08.997Z,17.82
2022-08-10T05:38:10.520Z,17.94
2022-08-10T05:41:44.771Z,18.08
2022-08-10T05:46:19.635Z,18.20
2022-08-10T05:50:14.446Z,18.34
2022-08-10T05:54:17.601Z,18.46
2022-08-10T05:58:22.562Z,18.59
2022-08-10T06:02:35.538Z,18.71
2022-08-10T06:06:40.486Z,18.84
2022-08-10T06:12:24.361Z,18.98
2022-08-10T06:15:21.711Z,19.15
2022-08-10T06:19:37.786Z,19.30
2022-08-10T06:23:42.535Z,19.46
2022-08-10T06:27:48.884Z,19.64
2022-08-10T06:31:55.894Z,19.82
2022-08-10T06:36:00.708Z,20.03
2022-08-10T06:40:04.390Z,20.25
2022-08-10T06:44:17.309Z,20.54
2022-08-10T06:48:28.006Z,20.87
2022-08-10T06:52:34.902Z,21.21
2022-08-10T06:56:55.828Z,21.61
2022-08-10T07:01:10.518Z,22.10
2022-08-10T07:05:20.973Z,22.67
2022-08-10T07:09:25.837Z,23.30
2022-08-10T07:14:16.732Z,24.03
2022-08-10T07:17:56.269Z,24.88
2022-08-10T07:22:02.373Z,25.67
2022-08-10T07:26:10.064Z,26.43
2022-08-10T07:30:13.997Z,27.14
2022-08-10T07:34:28.564Z,27.82
2022-08-10T07:38:35.458Z,28.49
2022-08-10T07:42:45.701Z,29.03
2022-08-10T07:46:54.123Z,29.53
2022-08-10T07:51:00.370Z,29.95
2022-08-10T07:55:07.877Z,30.36
2022-08-10T07:59:14.087Z,30.70
2022-08-10T08:03:18.485Z,30.97
2022-08-10T08:07:23.050Z,31.09
2022-08-10T08:11:29.624Z,31.22
2022-08-10T08:16:20.403Z,31.35
2022-08-10T08:20:01.549Z,31.58
2022-08-10T08:24:33.054Z,31.81
2022-08-10T08:28:37.157Z,32.06
2022-08-10T08:32:44.509Z,32.27
2022-08-10T08:36:50.600Z,32.55
2022-08-10T08:41:01.211Z,32.86
2022-08-10T08:45:16.060Z,33.19
2022-08-10T08:50:04.468Z,33.38
2022-08-10T08:54:14.660Z,33.53
2022-08-10T08:58:31.884Z,33.64
2022-08-10T09:02:56.647Z,33.79
2022-08-10T09:07:59.426Z,33.90
2022-08-10T09:12:07.587Z,34.03
2022-08-10T09:16:24.834Z,33.99
2022-08-10T09:20:36.069Z,33.89
2022-08-10T09:24:46.840Z,33.77
2022-08-10T09:28:57.738Z,33.60
2022-08-10T09:36:25.388Z,33.37
2022-08-10T09:38:02.170Z,33.14
2022-08-10T09:42:15.162Z,32.88
2022-08-10T09:46:27.328Z,32.78
2022-08-10T09:51:16.284Z,32.61
2022-08-10T09:55:16.369Z,32.33
2022-08-10T10:00:00.276Z,32.18
2022-08-10T10:03:56.675Z,32.14
2022-08-10T10:08:11.104Z,32.21
2022-08-10T10:12:25.983Z,32.31
2022-08-10T10:16:44.947Z,32.37
2022-08-10T10:20:57.484Z,32.42
2022-08-10T10:25:20.991Z,32.49
2022-08-10T10:29:58.267Z,32.43
2022-08-10T10:34:12.693Z,32.39
2022-08-10T10:38:18.551Z,32.49
2022-08-10T10:42:47.904Z,32.67
2022-08-10T10:51:09.897Z,33.27
2022-08-10T10:55:27.336Z,33.64
2022-08-10T10:59:54.959Z,33.95
2022-08-10T11:04:16.438Z,34.16
2022-08-10T11:08:29.185Z,34.25
2022-08-10T11:12:40.677Z,34.16
2022-08-10T11:16:57.181Z,33.91
2022-08-10T11:21:11.980Z,33.68
2022-08-10T11:25:31.836Z,33.53
2022-08-10T11:29:43.903Z,33.37
2022-08-10T11:34:47.399Z,33.17
2022-08-10T11:38:42.793Z,33.08
2022-08-10T11:43:07.304Z,33.16
2022-08-10T11:47:13.839Z,33.30
2022-08-10T11:51:23.039Z,33.43
2022-08-10T11:55:29.824Z,33.54
2022-08-10T11:59:58.632Z,33.66
2022-08-10T12:04:12.054Z,33.76
2022-08-10T12:10:04.170Z,33.81
2022-08-10T12:12:48.936Z,33.85
2022-08-10T12:17:02.440Z,33.87
2022-08-10T12:21:16.332Z,33.94
2022-08-10T12:25:57.183Z,34.01
2022-08-10T12:30:03.764Z,34.12
2022-08-10T12:34:22.417Z,34.23
2022-08-10T12:38:36.734Z,34.30
2022-08-10T12:43:02.461Z,34.33
2022-08-10T12:47:20.719Z,34.36
2022-08-10T12:51:30.402Z,34.42
2022-08-10T12:55:35.732Z,34.58
2022-08-10T12:59:43.796Z,34.76
2022-08-10T13:04:23.699Z,34.90
2022-08-10T13:08:33.712Z,35.03
2022-08-10T13:12:44.830Z,35.17
2022-08-10T13:16:51.016Z,35.28
2022-08-10T13:20:56.021Z,35.37
2022-08-10T13:25:04.808Z,35.40
2022-08-10T13:29:15.437Z,35.38
2022-08-10T13:34:40.599Z,35.38
2022-08-10T13:37:46.188Z,35.37
2022-08-10T13:41:54.943Z,35.43
2022-08-10T13:45:59.359Z,35.48
2022-08-10T13:50:06.663Z,35.44
2022-08-10T13:54:13.132Z,35.35
2022-08-10T13:58:23.595Z,35.28
2022-08-10T14:02:33.253Z,35.25
2022-08-10T14:06:37.126Z,35.25
2022-08-10T14:11:09.818Z,35.28
2022-08-10T14:15:11.757Z,35.27
2022-08-10T14:19:18.629Z,35.26
2022-08-10T14:23:23.851Z,35.25
2022-08-10T14:27:27.412Z,35.31
2022-08-10T14:32:00.716Z,35.41
2022-08-10T14:36:20.246Z,35.39
2022-08-10T14:40:36.483Z,35.41
2022-08-10T14:44:46.753Z,35.36
2022-08-10T14:48:52.922Z,35.25
2022-08-10T14:52:57.860Z,35.16
2022-08-10T14:57:10.856Z,35.15
2022-08-10T15:01:20.743Z,35.17
2022-08-10T15:05:39.322Z,35.25
2022-08-10T15:10:01.394Z,35.25
2022-08-10T15:14:41.933Z,35.22
2022-08-10T15:18:33.928Z,35.15
2022-08-10T15:22:40.582Z,35.07
2022-08-10T15:26:51.364Z,34.88
2022-08-10T15:31:02.073Z,34.67
2022-08-10T15:35:25.643Z,34.45
2022-08-10T15:40:22.019Z,34.26
2022-08-10T15:43:57.497Z,34.11
2022-08-10T15:48:04.031Z,33.97
2022-08-10T15:52:14.615Z,33.88
2022-08-10T15:56:46.111Z,33.73
2022-08-10T16:00:57.393Z,33.57
2022-08-10T16:05:08.133Z,33.39
2022-08-10T16:10:24.092Z,33.23
2022-08-10T16:13:50.663Z,33.07
2022-08-10T16:18:08.894Z,32.91
2022-08-10T16:22:36.651Z,32.73
2022-08-10T16:26:40.641Z,32.56
2022-08-10T16:30:48.577Z,32.42
2022-08-10T16:34:53.352Z,32.26
2022-08-10T16:38:57.874Z,32.12
2022-08-10T16:43:03.971Z,32.01
2022-08-10T16:51:21.714Z,31.72
2022-08-10T16:55:49.930Z,31.58
2022-08-10T16:59:51.689Z,31.41
2022-08-10T17:04:06.624Z,31.18
2022-08-10T17:08:17.952Z,31.01
2022-08-10T17:12:27.150Z,30.81
2022-08-10T17:16:35.923Z,30.61
2022-08-10T17:20:43.679Z,30.39
2022-08-10T17:24:54.768Z,30.16
2022-08-10T17:29:02.334Z,29.90
2022-08-10T17:33:14.055Z,29.66
2022-08-10T17:37:20.645Z,29.39
2022-08-10T17:41:30.483Z,29.14
2022-08-10T17:45:46.267Z,28.89
2022-08-10T17:49:57.494Z,28.64
2022-08-10T17:54:03.425Z,28.39
2022-08-10T17:58:13.717Z,28.13
2022-08-10T18:02:21.380Z,27.93
2022-08-10T18:06:25.417Z,27.70
2022-08-10T18:10:29.201Z,27.48
2022-08-10T18:14:35.100Z,27.27
2022-08-10T18:18:40.027Z,27.03
2022-08-10T18:22:46.625Z,26.80
2022-08-10T18:26:52.790Z,26.58
2022-08-10T18:30:58.520Z,26.34
2022-08-10T18:35:04.655Z,26.12
2022-08-10T18:39:09.715Z,25.88
2022-08-10T18:44:07.591Z,25.66
2022-08-10T18:47:59.684Z,25.48
2022-08-10T18:52:05.843Z,25.27
2022-08-10T18:56:21.962Z,25.08
2022-08-10T19:00:33.086Z,24.90
2022-08-10T19:04:57.066Z,24.71
2022-08-10T19:09:46.202Z,24.54
2022-08-10T19:13:55.233Z,24.38
2022-08-10T19:18:12.320Z,24.24
2022-08-10T19:22:22.667Z,24.17
2022-08-10T19:26:44.584Z,24.02
2022-08-10T19:30:53.251Z,23.92
2022-08-10T19:35:05.023Z,23.78
2022-08-10T19:39:18.026Z,23.70
2022-08-10T19:43:59.539Z,23.63
2022-08-10T19:47:57.213Z,23.56
2022-08-10T19:52:10.131Z,23.47
2022-08-10T19:56:34.162Z,23.34
2022-08-10T20:00:42.437Z,23.20
2022-08-10T20:04:58.404Z,23.06
2022-08-10T20:09:07.101Z,22.91
2022-08-10T20:13:16.535Z,22.76
2022-08-10T20:17:28.544Z,22.63
2022-08-10T20:21:40.710Z,22.53
2022-08-10T20:25:48.984Z,22.41
2022-08-10T20:29:59.489Z,22.31
2022-08-10T20:34:08.629Z,22.20
2022-08-10T20:38:20.926Z,22.04
2022-08-10T20:42:34.182Z,22.01
2022-08-10T20:46:49.120Z,21.91
2022-08-10T20:50:58.639Z,21.82
2022-08-10T20:55:08.716Z,21.73
2022-08-10T20:59:33.476Z,21.61
2022-08-10T21:03:54.136Z,21.50
2022-08-10T21:08:15.010Z,21.42
2022-08-10T21:12:45.517Z,21.34
2022-08-10T21:17:10.206Z,21.29
2022-08-10T21:21:41.673Z,21.28
2022-08-10T21:25:58.959Z,21.31
2022-08-10T21:30:09.218Z,21.32
2022-08-10T21:34:32.360Z,21.33
2022-08-10T21:38:48.138Z,21.32
2022-08-10T21:43:16.226Z,21.27
2022-08-10T21:48:16.486Z,21.15
2022-08-10T21:52:42.663Z,21.07
2022-08-10T21:57:43.733Z,20.97
2022-08-10T22:02:10.307Z,20.85
2022-08-10T22:06:33.387Z,20.81
2022-08-10T22:11:01.448Z,20.76
2022-08-10T22:15:31.181Z,20.72
2022-08-10T22:20:24.840Z,20.67
2022-08-10T22:24:58.501Z,20.65
2022-08-10T22:29:42.649Z,20.61
2022-08-10T22:34:16.469Z,20.62
2022-08-10T22:38:51.281Z,20.60
2022-08-10T22:43:15.273Z,20.53
2022-08-10T22:47:56.455Z,20.52
2022-08-10T22:52:07.726Z,20.48
2022-08-10T22:56:28.360Z,20.41
2022-08-10T23:00:32.451Z,20.34
2022-08-10T23:04:44.931Z,20.27
2022-08-10T23:08:54.636Z,20.21
2022-08-10T23:13:03.515Z,20.16
2022-08-10T23:18:02.087Z,20.11
2022-08-10T23:22:04.674Z,20.09
2022-08-10T23:26:12.806Z,20.08
2022-08-10T23:30:19.026Z,20.05
2022-08-10T23:34:27.071Z,20.02
2022-08-10T23:38:33.959Z,19.95
2022-08-10T23:42:42.217Z,19.85
2022-08-10T23:46:46.516Z,19.77
2022-08-10T23:50:59.253Z,19.73
2022-08-10T23:55:07.445Z,19.69
2022-08-10T23:59:16.883Z,19.69
